Time;durP1;ratioP1;P1;durP2;ratioP2;P2;SDS_P1;SDS_P2;PMS_P1;PMS_P2;Temp;Humidity;BMP_temperature;BMP_pressure;BME280_temperature;BME280_humidity;BME280_pressure;Samples;Min_cycle;Max_cycle;Signal;HPM_P1;HPM_P2
2023/03/15 00:02:01;;;;;;;11.63;1.58;;;3.90;99.90;;;;;;4886193;29;20140;-71
2023/03/15 00:04:27;;;;;;;13.95;1.70;;;4.10;99.90;;;;;;4886139;29;20081;-71
2023/03/15 00:06:54;;;;;;;7.03;1.25;;;4.20;99.90;;;;;;4886077;29;20072;-71
2023/03/15 00:09:21;;;;;;;7.30;1.08;;;4.20;99.90;;;;;;4886106;29;20041;-71
2023/03/15 00:11:48;;;;;;;5.40;1.13;;;4.20;99.90;;;;;;4885703;29;20428;-71
2023/03/15 00:14:14;;;;;;;7.15;1.15;;;4.30;99.90;;;;;;4885393;29;20045;-71
2023/03/15 00:16:41;;;;;;;11.63;1.83;;;4.40;99.90;;;;;;4885535;29;20446;-71
2023/03/15 00:19:08;;;;;;;7.30;0.95;;;4.30;99.90;;;;;;4885655;29;20045;-71
2023/03/15 00:21:34;;;;;;;13.80;1.50;;;4.30;99.90;;;;;;4885882;29;20061;-72
2023/03/15 00:24:00;;;;;;;12.50;1.38;;;4.30;99.90;;;;;;4885822;29;20045;-71
2023/03/15 00:26:26;;;;;;;11.55;1.35;;;4.40;99.90;;;;;;4885467;29;20435;-71
2023/03/15 00:28:52;;;;;;;16.08;1.88;;;4.40;99.90;;;;;;4885284;29;20083;-71
2023/03/15 00:31:23;;;;;;;13.40;1.73;;;4.30;99.90;;;;;;4885223;29;20478;-71
2023/03/15 00:33:52;;;;;;;6.78;1.38;;;4.20;99.90;;;;;;4885669;29;20053;-71
2023/03/15 00:36:23;;;;;;;17.58;1.45;;;4.30;99.90;;;;;;4885604;29;20085;-71
2023/03/15 00:38:50;;;;;;;10.02;1.15;;;4.30;99.90;;;;;;4885593;29;20048;-72
2023/03/15 00:41:17;;;;;;;15.93;1.90;;;4.40;99.90;;;;;;4885479;29;20041;-71
2023/03/15 00:43:44;;;;;;;17.95;1.85;;;4.60;99.90;;;;;;4885183;29;20420;-71
2023/03/15 00:46:10;;;;;;;13.00;1.30;;;4.50;99.90;;;;;;4885457;29;20124;-71
2023/03/15 00:48:36;;;;;;;17.27;1.58;;;4.50;99.90;;;;;;4899611;29;20057;-71
2023/03/15 00:51:10;;;;;;;16.25;1.33;;;4.50;99.90;;;;;;4885372;29;20072;-71
2023/03/15 00:53:37;;;;;;;10.73;1.02;;;4.50;99.90;;;;;;4885909;29;20094;-70
2023/03/15 00:56:09;;;;;;;9.88;1.17;;;4.50;99.90;;;;;;4885017;29;20368;-71
2023/03/15 00:58:35;;;;;;;12.05;1.20;;;4.50;99.90;;;;;;4884612;29;20052;-71
2023/03/15 01:01:08;;;;;;;11.23;1.80;;;4.60;99.90;;;;;;4885070;29;20044;-71
2023/03/15 01:03:34;;;;;;;8.85;1.30;;;4.70;99.90;;;;;;4884297;29;20060;-71
2023/03/15 01:06:05;;;;;;;9.55;1.20;;;4.80;99.90;;;;;;4885095;29;20060;-71
2023/03/15 01:08:31;;;;;;;8.25;0.95;;;4.80;99.90;;;;;;4884972;29;20339;-71
2023/03/15 01:11:01;;;;;;;11.52;1.20;;;4.80;99.90;;;;;;4885000;29;20116;-71
2023/03/15 01:13:27;;;;;;;10.18;1.20;;;4.80;99.90;;;;;;4885003;29;20059;-71
2023/03/15 01:15:52;;;;;;;7.43;0.75;;;4.80;99.90;;;;;;4884919;29;20041;-71
2023/03/15 01:18:18;;;;;;;9.75;0.82;;;4.70;99.90;;;;;;4884877;29;20111;-71
2023/03/15 01:20:44;;;;;;;10.45;1.92;;;4.50;99.90;;;;;;4884839;29;20045;-71
2023/03/15 01:23:09;;;;;;;7.55;1.20;;;4.50;99.90;;;;;;4884522;29;20113;-71
2023/03/15 01:25:35;;;;;;;17.58;1.17;;;4.30;99.90;;;;;;4884805;29;20055;-71
2023/03/15 01:28:01;;;;;;;7.97;0.93;;;4.40;99.90;;;;;;4884648;29;20487;-71
2023/03/15 01:30:26;;;;;;;10.57;1.05;;;4.40;99.90;;;;;;4883907;29;20064;-71
2023/03/15 01:32:52;;;;;;;14.38;1.15;;;4.60;99.90;;;;;;4884621;29;20037;-71
2023/03/15 01:35:18;;;;;;;7.45;1.00;;;4.60;99.90;;;;;;4898922;29;20124;-71
2023/03/15 01:37:43;;;;;;;8.38;1.50;;;4.50;99.90;;;;;;4884554;29;20052;-71
2023/03/15 01:40:12;;;;;;;7.88;1.10;;;4.60;99.90;;;;;;4884509;29;20449;-71
2023/03/15 01:43:01;;;;;;;9.48;1.77;;;4.70;99.90;;;;;;4884140;29;20455;-71
2023/03/15 01:46:01;;;;;;;8.98;1.00;;;4.70;99.90;;;;;;4872463;29;20343;-72
2023/03/15 01:48:52;;;;;;;12.75;1.52;;;4.60;99.90;;;;;;4884273;29;20056;-71
2023/03/15 01:51:26;;;;;;;5.78;1.00;;;4.50;99.90;;;;;;4884344;29;20327;-71
2023/03/15 01:53:59;;;;;;;20.63;1.40;;;4.50;99.90;;;;;;4883951;29;20450;-72
2023/03/15 01:56:26;;;;;;;11.25;1.05;;;4.60;99.90;;;;;;4884250;29;20086;-72
2023/03/15 01:58:54;;;;;;;13.07;1.00;;;4.50;99.90;;;;;;4883808;29;20059;-72
2023/03/15 02:01:20;;;;;;;17.52;1.02;;;4.50;99.90;;;;;;4884090;29;20037;-72
2023/03/15 02:03:51;;;;;;;10.90;1.00;;;4.70;99.90;;;;;;4898607;29;20143;-71
2023/03/15 02:06:18;;;;;;;9.27;1.00;;;4.70;99.90;;;;;;4882773;29;20343;-71
2023/03/15 02:09:00;;;;;;;6.22;0.82;;;4.70;99.90;;;;;;4883892;29;20041;-72
2023/03/15 02:11:27;;;;;;;10.55;0.88;;;4.70;99.90;;;;;;4887716;29;20040;-75
2023/03/15 02:13:55;;;;;;;7.32;1.02;;;4.60;99.90;;;;;;4900595;29;20149;-72
2023/03/15 02:16:22;;;;;;;12.45;0.88;;;4.70;99.90;;;;;;4902393;29;20036;-72
2023/03/15 02:18:48;;;;;;;7.43;0.82;;;4.60;99.90;;;;;;4902483;29;20048;-72
2023/03/15 02:21:34;;;;;;;8.55;0.82;;;4.70;99.90;;;;;;4902403;29;20045;-72
2023/03/15 02:24:33;;;;;;;11.48;1.08;;;4.70;99.90;;;;;;4902489;29;20096;-72
2023/03/15 02:26:59;;;;;;;7.07;1.15;;;4.80;99.90;;;;;;4902248;29;20059;-72
2023/03/15 02:29:27;;;;;;;12.65;1.05;;;4.70;99.90;;;;;;4901448;29;20040;-73
2023/03/15 02:31:54;;;;;;;14.27;1.05;;;4.60;99.90;;;;;;4902068;29;20060;-72
2023/03/15 02:34:24;;;;;;;5.18;0.65;;;4.50;99.90;;;;;;4902229;29;20076;-71
2023/03/15 02:36:51;;;;;;;17.90;1.33;;;4.50;99.90;;;;;;4902179;29;20063;-72
2023/03/15 02:39:19;;;;;;;11.15;0.93;;;4.40;99.90;;;;;;4902124;29;20041;-72
2023/03/15 02:41:52;;;;;;;7.80;0.60;;;4.40;99.90;;;;;;4902118;29;20045;-72
2023/03/15 02:44:40;;;;;;;7.93;1.10;;;4.30;99.90;;;;;;4902132;29;20044;-72
2023/03/15 02:47:12;;;;;;;7.22;0.95;;;4.30;99.90;;;;;;4901060;29;20130;-71
2023/03/15 02:49:41;;;;;;;6.43;0.50;;;4.20;99.90;;;;;;4902014;29;20123;-71
2023/03/15 02:52:07;;;;;;;9.40;0.90;;;4.10;99.90;;;;;;4901657;29;20423;-71
2023/03/15 02:54:33;;;;;;;10.05;1.15;;;4.10;99.90;;;;;;4901900;29;20122;-72
2023/03/15 02:57:01;;;;;;;11.82;1.00;;;4.20;99.90;;;;;;4901916;29;20041;-71
2023/03/15 02:59:26;;;;;;;10.77;1.55;;;4.20;99.90;;;;;;4901464;29;20076;-72
2023/03/15 03:01:52;;;;;;;13.68;1.25;;;4.10;99.90;;;;;;4901832;29;20045;-72
2023/03/15 03:04:18;;;;;;;7.25;0.82;;;4.10;99.90;;;;;;4901509;29;20051;-71
2023/03/15 03:06:44;;;;;;;8.63;0.90;;;4.20;99.90;;;;;;4901692;29;20075;-72
2023/03/15 03:09:10;;;;;;;9.23;0.95;;;4.30;99.90;;;;;;4901738;29;20107;-72
2023/03/15 03:11:36;;;;;;;6.13;0.70;;;4.30;99.90;;;;;;4901645;29;20104;-72
2023/03/15 03:14:02;;;;;;;10.57;1.55;;;4.30;99.90;;;;;;4901717;29;20384;-72
2023/03/15 03:16:28;;;;;;;10.95;1.00;;;4.30;99.90;;;;;;4901748;29;20047;-72
2023/03/15 03:18:53;;;;;;;10.98;1.10;;;4.20;99.90;;;;;;4901620;29;20048;-72
2023/03/15 03:21:19;;;;;;;12.55;1.40;;;4.20;99.90;;;;;;4901569;29;20052;-71
2023/03/15 03:23:45;;;;;;;9.30;1.08;;;4.20;99.90;;;;;;4901544;29;20331;-72
2023/03/15 03:26:16;;;;;;;3.78;0.70;;;4.20;99.90;;;;;;4900844;29;20052;-71
2023/03/15 03:28:45;;;;;;;10.32;0.95;;;4.30;99.90;;;;;;4901191;29;20048;-72
2023/03/15 03:31:23;;;;;;;4.53;0.75;;;4.20;99.90;;;;;;4901152;29;20061;-71
2023/03/15 03:33:49;;;;;;;10.15;1.00;;;4.30;99.90;;;;;;4901940;29;20327;-71
2023/03/15 03:36:15;;;;;;;9.68;1.00;;;4.20;99.90;;;;;;4901449;29;20056;-72
2023/03/15 03:38:42;;;;;;;9.00;0.93;;;4.00;99.90;;;;;;4901479;29;20116;-71
2023/03/15 03:41:13;;;;;;;11.75;0.93;;;4.10;99.90;;;;;;4901410;29;20177;-71
2023/03/15 03:43:39;;;;;;;13.35;1.38;;;4.20;99.90;;;;;;4901145;29;20053;-71
2023/03/15 03:46:05;;;;;;;8.75;0.90;;;4.00;99.90;;;;;;4901368;29;20044;-71
2023/03/15 03:48:32;;;;;;;8.38;0.82;;;3.90;99.90;;;;;;4901276;29;20064;-72
2023/03/15 03:50:58;;;;;;;7.90;0.68;;;3.90;99.90;;;;;;4901067;29;20041;-71
2023/03/15 03:53:24;;;;;;;9.77;0.82;;;3.70;99.90;;;;;;4884501;29;20449;-72
2023/03/15 03:55:50;;;;;;;2.65;0.50;;;3.80;99.90;;;;;;4884705;29;20128;-72
2023/03/15 03:58:15;;;;;;;4.32;0.95;;;3.80;99.90;;;;;;4884547;29;20123;-71
2023/03/15 04:00:42;;;;;;;5.55;0.50;;;3.80;99.90;;;;;;4900951;29;20427;-71
2023/03/15 04:03:08;;;;;;;4.18;0.57;;;3.80;99.90;;;;;;4900961;29;20054;-72
2023/03/15 04:05:34;;;;;;;5.68;0.70;;;3.80;99.90;;;;;;4901191;29;20051;-71
2023/03/15 04:07:59;;;;;;;5.70;1.13;;;3.90;99.90;;;;;;4901112;29;20108;-72
2023/03/15 04:10:25;;;;;;;5.65;1.05;;;3.90;99.90;;;;;;4901273;29;20045;-72
2023/03/15 04:12:57;;;;;;;8.23;0.63;;;3.90;99.90;;;;;;4901185;29;20036;-71
2023/03/15 04:15:23;;;;;;;4.90;0.60;;;3.90;99.90;;;;;;4901134;29;20123;-72
2023/03/15 04:17:57;;;;;;;11.10;0.90;;;3.90;99.90;;;;;;4901141;29;20058;-72
2023/03/15 04:20:25;;;;;;;9.25;0.98;;;3.90;99.90;;;;;;4901173;29;20313;-72
2023/03/15 04:22:51;;;;;;;11.30;1.02;;;3.80;99.90;;;;;;4901071;29;20045;-71
2023/03/15 04:25:20;;;;;;;5.78;0.60;;;3.70;99.90;;;;;;4901248;29;20036;-71
2023/03/15 04:27:57;;;;;;;6.57;1.00;;;3.70;99.90;;;;;;4900921;29;20089;-71
2023/03/15 04:30:27;;;;;;;8.40;0.60;;;3.80;99.90;;;;;;4900380;29;20131;-72
2023/03/15 04:33:02;;;;;;;5.10;0.80;;;3.70;99.90;;;;;;4901025;29;20084;-71
2023/03/15 04:35:36;;;;;;;4.63;0.60;;;3.80;99.90;;;;;;4901020;29;20088;-72
2023/03/15 04:38:02;;;;;;;6.00;0.70;;;3.90;99.90;;;;;;4904046;29;20072;-72
2023/03/15 04:40:29;;;;;;;7.50;0.70;;;3.90;99.90;;;;;;4904338;29;20084;-72
2023/03/15 04:42:55;;;;;;;8.05;0.80;;;3.90;99.90;;;;;;4904371;29;20094;-72
2023/03/15 04:45:25;;;;;;;8.85;1.20;;;3.90;99.90;;;;;;4903977;29;20056;-71
2023/03/15 04:47:52;;;;;;;3.13;0.40;;;3.90;99.90;;;;;;4904109;29;20040;-71
2023/03/15 04:50:18;;;;;;;9.95;1.33;;;3.90;99.90;;;;;;4904138;29;20081;-71
2023/03/15 04:52:44;;;;;;;9.45;0.73;;;3.80;99.90;;;;;;4903890;29;20040;-71
2023/03/15 04:55:09;;;;;;;6.15;0.93;;;3.80;99.90;;;;;;4903753;29;20044;-71
2023/03/15 04:57:35;;;;;;;6.97;0.57;;;3.70;99.90;;;;;;4903666;29;20060;-72
2023/03/15 05:00:03;;;;;;;3.00;0.50;;;3.70;99.90;;;;;;4903299;29;20045;-71
2023/03/15 05:02:28;;;;;;;5.05;0.70;;;3.70;99.90;;;;;;4903909;29;20064;-71
2023/03/15 05:04:54;;;;;;;5.55;1.20;;;3.60;99.90;;;;;;4903917;29;20045;-71
2023/03/15 05:07:19;;;;;;;6.90;0.50;;;3.60;99.90;;;;;;4903484;29;20044;-71
2023/03/15 05:09:46;;;;;;;4.60;0.38;;;3.60;99.90;;;;;;4903862;29;20059;-72
2023/03/15 05:12:12;;;;;;;5.53;0.70;;;3.60;99.90;;;;;;4903620;29;20044;-72
2023/03/15 05:14:38;;;;;;;6.57;0.30;;;3.60;99.90;;;;;;4887079;29;20039;-72
2023/03/15 05:17:04;;;;;;;8.32;0.90;;;3.60;99.90;;;;;;4903655;29;20044;-72
2023/03/15 05:19:33;;;;;;;11.18;1.25;;;3.60;99.90;;;;;;4903618;29;20111;-72
2023/03/15 05:22:00;;;;;;;6.38;0.60;;;3.60;99.90;;;;;;4903539;29;20052;-72
2023/03/15 05:24:26;;;;;;;6.88;0.47;;;3.60;99.90;;;;;;4903524;29;20052;-72
2023/03/15 05:26:53;;;;;;;4.53;0.70;;;3.60;99.90;;;;;;4903229;29;20045;-72
2023/03/15 05:29:20;;;;;;;3.88;0.50;;;3.60;99.90;;;;;;4902620;29;20044;-72
2023/03/15 05:31:46;;;;;;;5.28;0.50;;;3.60;99.90;;;;;;4893198;29;20408;-72
2023/03/15 05:34:12;;;;;;;4.13;0.60;;;3.50;99.90;;;;;;4903365;29;20104;-72
2023/03/15 05:36:38;;;;;;;2.58;0.40;;;3.50;99.90;;;;;;4903409;29;20040;-72
2023/03/15 05:39:04;;;;;;;7.18;0.73;;;3.50;99.90;;;;;;4903078;29;20079;-72
2023/03/15 05:41:30;;;;;;;10.50;0.68;;;3.40;99.90;;;;;;4903025;29;20115;-71
2023/03/15 05:43:56;;;;;;;4.30;0.50;;;3.50;99.90;;;;;;4903174;29;20075;-72
2023/03/15 05:46:22;;;;;;;5.30;0.52;;;3.40;99.90;;;;;;4903130;29;20119;-72
2023/03/15 05:48:48;;;;;;;5.75;0.60;;;3.40;99.90;;;;;;4902387;29;20132;-72
2023/03/15 05:51:14;;;;;;;6.55;0.60;;;3.40;99.90;;;;;;4903055;29;20036;-72
2023/03/15 05:53:40;;;;;;;8.07;0.60;;;3.40;99.90;;;;;;4903006;29;20036;-72
2023/03/15 05:56:06;;;;;;;3.80;0.32;;;3.40;99.90;;;;;;4902905;29;20135;-72
2023/03/15 05:58:32;;;;;;;7.38;0.55;;;3.30;99.90;;;;;;4902851;29;20040;-72
2023/03/15 06:01:00;;;;;;;6.38;0.90;;;3.50;99.90;;;;;;4902557;29;20063;-72
2023/03/15 06:03:26;;;;;;;6.53;0.57;;;3.50;99.90;;;;;;4902789;29;20055;-72
2023/03/15 06:05:52;;;;;;;7.97;0.90;;;3.30;99.90;;;;;;4902724;29;20051;-72
2023/03/15 06:08:18;;;;;;;6.05;0.68;;;3.30;99.90;;;;;;4902650;29;20052;-72
2023/03/15 06:10:43;;;;;;;10.10;1.02;;;3.30;99.90;;;;;;4902637;29;20051;-72
2023/03/15 06:13:09;;;;;;;6.63;1.05;;;3.20;99.90;;;;;;4902610;29;20077;-72
2023/03/15 06:15:35;;;;;;;7.80;0.80;;;3.20;99.90;;;;;;4902529;29;20040;-72
2023/03/15 06:18:00;;;;;;;8.75;1.20;;;3.20;99.90;;;;;;4902190;29;20051;-72
2023/03/15 06:20:26;;;;;;;9.63;1.15;;;3.20;99.90;;;;;;4902241;29;20077;-72
2023/03/15 06:22:52;;;;;;;8.75;1.10;;;3.30;99.90;;;;;;4902497;29;20072;-72
2023/03/15 06:25:18;;;;;;;19.08;1.27;;;3.30;99.90;;;;;;4870094;29;20316;-72
2023/03/15 06:27:43;;;;;;;12.27;1.23;;;3.20;99.90;;;;;;4902261;29;20045;-72
2023/03/15 06:30:10;;;;;;;5.88;0.70;;;3.00;99.90;;;;;;4885436;29;20051;-72
2023/03/15 06:32:35;;;;;;;15.18;1.40;;;2.90;99.90;;;;;;4899968;29;20052;-72
2023/03/15 06:35:01;;;;;;;7.57;0.98;;;2.90;99.90;;;;;;4901926;29;20060;-72
2023/03/15 06:37:27;;;;;;;6.90;1.48;;;2.80;99.90;;;;;;4885599;29;20056;-72
2023/03/15 06:39:53;;;;;;;4.35;1.17;;;2.90;99.90;;;;;;4885347;29;20430;-72
2023/03/15 06:42:19;;;;;;;6.03;1.10;;;3.10;99.90;;;;;;4902135;29;20048;-72
2023/03/15 06:44:44;;;;;;;8.85;1.35;;;3.10;99.90;;;;;;4902106;29;20050;-72
2023/03/15 06:47:10;;;;;;;5.53;1.20;;;3.10;99.90;;;;;;4901681;29;20346;-72
2023/03/15 06:49:36;;;;;;;13.88;1.38;;;3.00;99.90;;;;;;4901980;29;20041;-72
2023/03/15 06:52:04;;;;;;;5.97;1.20;;;3.10;99.90;;;;;;4901981;29;20044;-72
2023/03/15 06:54:30;;;;;;;10.23;1.40;;;3.20;99.90;;;;;;4901978;29;20036;-72
2023/03/15 06:56:56;;;;;;;11.52;1.20;;;3.20;99.90;;;;;;4886054;29;20104;-72
2023/03/15 06:59:22;;;;;;;10.93;0.80;;;3.30;99.90;;;;;;4901074;29;20040;-72
2023/03/15 07:01:48;;;;;;;7.15;1.27;;;3.40;99.90;;;;;;4901138;29;20104;-72
2023/03/15 07:04:13;;;;;;;10.63;1.40;;;3.30;99.90;;;;;;4901524;29;20044;-72
2023/03/15 07:06:39;;;;;;;9.85;1.40;;;3.10;99.90;;;;;;4901807;29;20104;-72
2023/03/15 07:09:05;;;;;;;14.10;1.40;;;3.10;99.90;;;;;;4901687;29;20049;-72
2023/03/15 07:11:31;;;;;;;7.85;1.60;;;3.10;99.90;;;;;;4901680;29;20040;-72
2023/03/15 07:13:57;;;;;;;9.55;1.48;;;3.00;99.90;;;;;;4901709;29;20037;-72
2023/03/15 07:16:24;;;;;;;11.38;2.10;;;3.10;99.90;;;;;;4901367;29;20331;-72
2023/03/15 07:18:49;;;;;;;5.07;1.10;;;3.20;99.90;;;;;;4901686;29;20371;-72
2023/03/15 07:21:15;;;;;;;11.05;2.13;;;3.50;99.90;;;;;;4901601;29;20048;-72
2023/03/15 07:23:41;;;;;;;6.90;1.10;;;3.70;99.90;;;;;;4884726;29;20087;-72
2023/03/15 07:26:07;;;;;;;10.20;1.50;;;3.90;99.90;;;;;;4901541;29;20048;-71
2023/03/15 07:28:32;;;;;;;11.63;1.30;;;4.00;99.90;;;;;;4901456;29;20119;-71
2023/03/15 07:31:03;;;;;;;5.05;1.45;;;3.80;99.90;;;;;;4900776;29;20037;-72
2023/03/15 07:33:33;;;;;;;11.95;1.40;;;3.70;99.90;;;;;;4901544;29;20104;-72
2023/03/15 07:35:59;;;;;;;7.45;1.40;;;3.80;99.90;;;;;;4901187;29;20316;-72
2023/03/15 07:38:29;;;;;;;8.13;2.00;;;3.70;99.90;;;;;;4884632;29;20044;-71
2023/03/15 07:40:56;;;;;;;9.30;1.30;;;3.60;99.90;;;;;;4901476;29;20044;-72
2023/03/15 07:43:21;;;;;;;5.72;1.38;;;3.70;99.90;;;;;;4901139;29;20490;-71
2023/03/15 07:45:47;;;;;;;15.15;1.40;;;3.70;99.90;;;;;;4901377;29;20044;-71
2023/03/15 07:48:13;;;;;;;12.05;1.25;;;3.90;99.90;;;;;;4901293;29;20048;-71
2023/03/15 07:50:39;;;;;;;11.77;1.27;;;4.00;99.90;;;;;;4901109;29;20037;-71
2023/03/15 07:53:05;;;;;;;10.43;1.40;;;3.90;99.90;;;;;;4901366;29;20127;-69
2023/03/15 07:55:32;;;;;;;11.80;1.75;;;4.10;99.90;;;;;;4901242;29;20068;-68
2023/03/15 07:57:58;;;;;;;13.13;1.20;;;4.20;99.90;;;;;;4900503;29;20083;-68
2023/03/15 08:00:24;;;;;;;15.50;2.08;;;4.30;99.90;;;;;;4900907;29;20072;-68
2023/03/15 08:02:50;;;;;;;11.18;1.63;;;4.30;99.90;;;;;;4901243;29;20047;-68
2023/03/15 08:05:17;;;;;;;8.45;1.30;;;4.30;99.90;;;;;;4901210;29;20478;-68
2023/03/15 08:07:47;;;;;;;9.18;1.52;;;4.40;99.90;;;;;;4901130;29;20388;-68
2023/03/15 08:10:14;;;;;;;11.48;1.25;;;4.50;99.90;;;;;;4901233;29;20098;-68
2023/03/15 08:12:41;;;;;;;13.88;1.60;;;4.60;99.90;;;;;;4903727;29;20079;-68
2023/03/15 08:15:12;;;;;;;11.60;1.20;;;4.80;99.90;;;;;;4888160;29;20375;-67
2023/03/15 08:17:39;;;;;;;15.43;1.58;;;4.80;99.90;;;;;;4904759;29;20045;-67
2023/03/15 08:20:08;;;;;;;19.58;2.10;;;4.80;99.90;;;;;;4904230;29;20209;-67
2023/03/15 08:22:34;;;;;;;10.63;1.67;;;4.90;99.90;;;;;;4904670;29;20048;-68
2023/03/15 08:25:00;;;;;;;7.80;1.00;;;5.00;99.90;;;;;;4904610;29;20068;-68
2023/03/15 08:27:25;;;;;;;6.82;1.33;;;5.10;99.90;;;;;;4904446;29;20449;-68
2023/03/15 08:29:51;;;;;;;15.50;1.45;;;5.20;99.90;;;;;;4904071;29;20336;-68
2023/03/15 08:32:18;;;;;;;12.43;1.25;;;5.30;99.90;;;;;;4868115;29;20141;-68
2023/03/15 08:34:44;;;;;;;15.75;1.40;;;5.40;99.90;;;;;;4904141;29;20547;-68
2023/03/15 08:37:10;;;;;;;8.20;1.15;;;5.40;99.90;;;;;;4887748;29;20347;-68
2023/03/15 08:39:37;;;;;;;15.13;2.47;;;5.40;99.90;;;;;;4887494;29;20076;-68
2023/03/15 08:42:04;;;;;;;8.07;1.50;;;5.30;99.90;;;;;;4904294;29;20047;-68
2023/03/15 08:44:30;;;;;;;12.82;1.23;;;5.40;99.90;;;;;;4904048;29;20128;-68
2023/03/15 08:46:55;;;;;;;14.18;2.20;;;5.50;99.90;;;;;;4904117;29;20119;-68
2023/03/15 08:49:21;;;;;;;8.77;1.70;;;5.60;99.90;;;;;;4884504;29;20055;-68
2023/03/15 08:51:47;;;;;;;10.90;2.10;;;5.70;99.90;;;;;;4873240;29;20034;-68
2023/03/15 08:54:16;;;;;;;11.68;1.23;;;5.50;99.90;;;;;;4877135;29;20038;-68
2023/03/15 08:56:41;;;;;;;13.55;2.22;;;5.70;99.90;;;;;;4878382;29;20424;-67
2023/03/15 08:59:08;;;;;;;6.10;1.00;;;5.80;99.90;;;;;;4884391;29;20105;-68
2023/03/15 09:01:34;;;;;;;6.28;1.08;;;5.90;99.90;;;;;;4866382;29;20344;-68
2023/03/15 09:04:01;;;;;;;9.93;1.55;;;5.90;99.90;;;;;;4849774;29;20061;-68
2023/03/15 09:06:27;;;;;;;9.60;1.27;;;6.00;99.90;;;;;;4866393;29;20344;-68
2023/03/15 09:08:53;;;;;;;9.55;0.68;;;6.20;99.90;;;;;;4877187;29;20448;-68
2023/03/15 09:11:20;;;;;;;5.65;1.00;;;6.20;99.90;;;;;;4866354;29;20041;-67
2023/03/15 09:13:46;;;;;;;11.65;1.10;;;6.20;99.90;;;;;;4865556;29;20037;-69
2023/03/15 09:16:12;;;;;;;10.50;1.10;;;6.20;99.90;;;;;;4866299;29;20085;-68
2023/03/15 09:18:42;;;;;;;6.30;0.60;;;6.30;99.90;;;;;;4866177;29;20428;-68
2023/03/15 09:21:09;;;;;;;7.40;1.23;;;6.50;99.90;;;;;;4865946;29;20088;-68
2023/03/15 09:23:34;;;;;;;7.13;1.20;;;6.70;99.90;;;;;;4864748;29;20336;-68
2023/03/15 09:26:00;;;;;;;9.48;1.00;;;6.70;99.90;;;;;;4882365;29;20048;-68
2023/03/15 09:28:26;;;;;;;8.98;1.02;;;6.60;99.90;;;;;;4884284;29;20124;-68
2023/03/15 09:30:52;;;;;;;4.57;0.95;;;6.80;99.90;;;;;;4884106;29;20037;-68
2023/03/15 09:33:18;;;;;;;12.75;1.00;;;7.00;99.90;;;;;;4884131;29;20406;-68
2023/03/15 09:35:43;;;;;;;5.03;1.02;;;7.00;99.90;;;;;;4884063;29;20059;-68
2023/03/15 09:38:09;;;;;;;5.28;0.80;;;7.20;99.90;;;;;;4884438;29;20060;-68
2023/03/15 09:40:41;;;;;;;7.53;1.23;;;7.30;99.90;;;;;;4884387;29;20060;-68
2023/03/15 09:43:07;;;;;;;7.47;1.80;;;7.20;99.90;;;;;;4883513;29;20449;-68
2023/03/15 09:46:10;;;;;;;10.32;1.73;;;7.30;99.90;;;;;;4878566;29;20340;-68
2023/03/15 09:48:53;;;;;;;8.75;0.98;;;7.40;99.90;;;;;;4865319;29;20109;-67
2023/03/15 09:51:34;;;;;;;10.63;1.58;;;7.30;99.90;;;;;;4865636;29;20129;-67
2023/03/15 09:54:12;;;;;;;5.68;0.73;;;7.20;99.90;;;;;;4849159;29;20052;-68
2023/03/15 09:56:52;;;;;;;10.85;1.02;;;7.40;99.90;;;;;;4865430;29;20328;-68
2023/03/15 09:59:21;;;;;;;12.07;1.05;;;7.60;99.90;;;;;;4875792;29;20049;-68
2023/03/15 10:01:49;;;;;;;12.63;1.48;;;7.60;99.90;;;;;;4883677;29;20077;-68
2023/03/15 10:04:28;;;;;;;5.85;0.60;;;7.60;99.90;;;;;;4883930;29;20044;-67
2023/03/15 10:06:56;;;;;;;4.90;0.50;;;7.90;99.90;;;;;;4866725;29;20052;-68
2023/03/15 10:09:25;;;;;;;6.43;1.17;;;7.70;99.90;;;;;;4882370;29;20478;-70
2023/03/15 10:12:14;;;;;;;7.75;0.75;;;7.70;99.90;;;;;;4880450;29;20049;-68
2023/03/15 10:15:10;;;;;;;5.32;0.60;;;7.80;99.90;;;;;;4882889;29;20041;-69
2023/03/15 10:17:50;;;;;;;7.75;1.20;;;8.00;99.90;;;;;;4862168;29;20053;-72
2023/03/15 10:20:35;;;;;;;6.75;1.27;;;7.90;99.90;;;;;;4882588;29;20056;-68
2023/03/15 10:23:22;;;;;;;8.30;1.10;;;7.80;99.90;;;;;;4883549;29;20044;-68
2023/03/15 10:25:51;;;;;;;10.40;1.13;;;8.10;99.90;;;;;;4880565;29;20040;-70
2023/03/15 10:28:27;;;;;;;7.05;1.20;;;8.10;99.90;;;;;;4880394;29;20049;-68
2023/03/15 10:30:58;;;;;;;10.30;0.95;;;8.30;99.90;;;;;;4882433;29;20102;-68
2023/03/15 10:33:32;;;;;;;11.38;0.73;;;8.30;99.90;;;;;;4882796;29;20065;-67
2023/03/15 10:36:00;;;;;;;11.18;1.02;;;8.40;99.90;;;;;;4883361;29;20164;-67
2023/03/15 10:38:26;;;;;;;9.40;1.20;;;8.40;99.90;;;;;;4883537;29;20045;-68
2023/03/15 10:40:54;;;;;;;15.50;1.67;;;8.60;99.90;;;;;;4879866;29;20045;-68
2023/03/15 10:43:25;;;;;;;4.75;0.77;;;8.80;99.90;;;;;;4870324;29;20041;-69
2023/03/15 10:46:01;;;;;;;10.25;0.90;;;8.80;99.90;;;;;;4880086;29;20049;-68
2023/03/15 10:48:30;;;;;;;9.05;0.90;;;9.10;99.90;;;;;;4880875;29;20474;-69
2023/03/15 10:50:56;;;;;;;11.73;0.98;;;8.90;99.90;;;;;;4882909;29;20440;-67
2023/03/15 10:53:24;;;;;;;7.13;1.00;;;8.90;99.90;;;;;;4883027;29;20041;-67
2023/03/15 10:56:06;;;;;;;10.05;0.95;;;8.90;99.90;;;;;;4883102;29;20110;-67
2023/03/15 10:58:51;;;;;;;7.80;0.70;;;8.90;99.90;;;;;;4882100;29;20049;-69
2023/03/15 11:01:26;;;;;;;10.00;0.80;;;8.80;99.90;;;;;;4878984;29;20072;-71
2023/03/15 11:04:01;;;;;;;9.93;1.15;;;8.90;99.90;;;;;;4879457;29;20047;-75
2023/03/15 11:06:28;;;;;;;6.93;0.70;;;9.30;99.90;;;;;;4881055;29;20475;-76
2023/03/15 11:09:32;;;;;;;8.77;1.02;;;8.90;99.90;;;;;;4882244;29;20049;-72
2023/03/15 11:12:01;;;;;;;6.50;1.10;;;8.70;99.90;;;;;;4854184;29;20091;-72
2023/03/15 11:14:46;;;;;;;8.27;1.02;;;8.90;99.90;;;;;;4883036;29;20041;-73
2023/03/15 11:17:18;;;;;;;7.18;1.00;;;9.10;99.90;;;;;;4883128;29;20331;-73
2023/03/15 11:19:54;;;;;;;6.72;0.80;;;9.20;99.90;;;;;;4883026;29;20040;-71
2023/03/15 11:22:20;;;;;;;6.40;0.77;;;8.80;99.90;;;;;;4882812;29;20447;-68
2023/03/15 11:24:46;;;;;;;14.60;1.65;;;8.90;99.90;;;;;;4882805;29;20037;-69
2023/03/15 11:27:17;;;;;;;3.83;0.98;;;8.70;99.90;;;;;;4882871;29;20041;-70
2023/03/15 11:29:58;;;;;;;10.90;1.10;;;9.20;99.90;;;;;;4882721;29;20041;-74
2023/03/15 11:32:30;;;;;;;7.78;0.82;;;9.80;99.90;;;;;;4863136;29;20058;-67
2023/03/15 11:35:01;;;;;;;4.40;0.80;;;10.30;99.90;;;;;;4864273;29;20045;-68
2023/03/15 11:37:38;;;;;;;11.27;1.15;;;10.20;99.90;;;;;;4864166;29;20145;-68
2023/03/15 11:40:19;;;;;;;7.15;0.95;;;10.50;99.90;;;;;;4853750;29;20050;-67
2023/03/15 11:43:02;;;;;;;5.88;1.00;;;10.70;99.90;;;;;;4845608;29;20065;-70
2023/03/15 11:45:41;;;;;;;6.18;1.00;;;10.70;99.90;;;;;;4845490;29;20428;-69
2023/03/15 11:48:32;;;;;;;6.75;0.82;;;10.60;99.90;;;;;;4849226;29;20098;-69
2023/03/15 11:51:00;;;;;;;8.10;0.80;;;11.20;99.90;;;;;;4849485;29;20333;-70
2023/03/15 11:53:33;;;;;;;5.13;0.93;;;11.20;99.90;;;;;;4848112;29;20057;-69
2023/03/15 11:56:22;;;;;;;6.10;0.77;;;10.70;99.90;;;;;;4849393;29;20049;-69
2023/03/15 11:59:03;;;;;;;6.30;0.95;;;11.00;99.90;;;;;;4848740;29;20054;-69
2023/03/15 12:01:29;;;;;;;4.28;0.80;;;10.70;99.90;;;;;;4849103;29;20046;-69
2023/03/15 12:04:23;;;;;;;8.60;0.70;;;10.70;99.90;;;;;;4849066;29;20124;-70
2023/03/15 12:06:53;;;;;;;7.68;0.85;;;10.60;99.90;;;;;;4848937;29;20048;-69
2023/03/15 12:09:36;;;;;;;7.07;1.15;;;10.50;99.90;;;;;;4849114;29;20054;-69
2023/03/15 12:12:25;;;;;;;8.43;0.80;;;11.10;99.90;;;;;;4848181;29;20121;-69
2023/03/15 12:15:18;;;;;;;4.50;0.80;;;11.00;99.90;;;;;;4847926;29;20168;-69
2023/03/15 12:17:54;;;;;;;5.18;0.52;;;11.10;99.90;;;;;;4847927;29;20386;-69
2023/03/15 12:20:40;;;;;;;7.32;1.10;;;11.60;99.90;;;;;;4848994;29;20061;-70
2023/03/15 12:23:17;;;;;;;5.65;0.70;;;11.90;99.90;;;;;;4849049;29;20076;-70
2023/03/15 12:25:53;;;;;;;6.70;0.68;;;11.80;99.90;;;;;;4848877;29;20046;-69
2023/03/15 12:28:29;;;;;;;3.42;0.57;;;12.30;99.90;;;;;;4878659;29;20126;-67
2023/03/15 12:30:58;;;;;;;9.13;1.00;;;12.50;99.90;;;;;;4847443;29;20056;-67
2023/03/15 12:33:26;;;;;;;6.55;1.15;;;12.20;99.90;;;;;;4879837;29;20409;-68
2023/03/15 12:36:02;;;;;;;4.68;0.70;;;12.10;99.90;;;;;;4885740;29;20045;-68
2023/03/15 12:38:35;;;;;;;4.83;0.80;;;11.80;99.90;;;;;;4885770;29;20120;-68
2023/03/15 12:41:07;;;;;;;14.35;1.10;;;12.40;99.90;;;;;;4885719;29;20105;-67
2023/03/15 12:43:51;;;;;;;4.80;0.90;;;13.00;99.90;;;;;;4885274;29;20055;-68
2023/03/15 12:46:35;;;;;;;5.00;0.90;;;13.40;99.90;;;;;;4885242;29;20104;-68
2023/03/15 12:49:12;;;;;;;8.18;1.02;;;13.20;99.90;;;;;;4885414;29;20432;-68
2023/03/15 12:52:02;;;;;;;5.63;0.82;;;12.50;99.90;;;;;;4885208;29;20420;-68
2023/03/15 12:54:52;;;;;;;7.78;1.10;;;11.90;99.90;;;;;;4885361;29;20120;-67
2023/03/15 12:57:21;;;;;;;7.20;0.77;;;12.00;99.90;;;;;;4885328;29;20124;-67
2023/03/15 12:59:55;;;;;;;7.72;1.15;;;11.20;99.90;;;;;;4884692;29;20445;-68
2023/03/15 13:02:27;;;;;;;5.30;0.80;;;11.10;99.90;;;;;;4868872;29;20037;-68
2023/03/15 13:05:16;;;;;;;5.47;0.60;;;11.10;99.90;;;;;;4884970;29;20048;-68
2023/03/15 13:07:55;;;;;;;5.30;0.60;;;11.90;99.90;;;;;;4868356;29;20049;-68